Latest Weather Observations for Moranbah Airport

IDQ60801

Issued at 11:35 pm EST Wednesday 23 July 2014 (issued every 30 minutes, with the page automatically refreshed every 10 minutes)

About weather observations | Map of weather stations | Latest weather observations for QLD | Other Formats
Station Details ID: 034035 Name: MORANBAH AIRPORT Lat: -22.06 Lon: 148.08 Height: 232.2 m
Data from the previous 72 hours. | See also: Recent months at Moranbah Airport
Date/Time
EST
Temp
°C
App
Temp
°C
Dew
Point
Rel
Hum
%
Delta-T
°C
Wind Press
QNH
hPa
Press
MSL
hPa
Rain
since 9 am
mm
Dir
 
Spd
km/h
Gust
km/h
Spd
kts
Gust
kts
23/11:30pm 15.2 12.2 10.6 74 2.4 E 17 24 9 13 1019.7 - 0.0
23/11:00pm 14.3 11.7 9.3 72 2.6 E 13 17 7 9 1019.7 - 0.0
23/10:30pm 14.7 11.9 8.4 66 3.2 E 13 17 7 9 1019.8 - 0.0
23/10:00pm 14.8 12.2 7.6 62 3.6 ENE 11 15 6 8 1019.9 - 0.0
23/09:30pm 16.0 12.5 7.0 55 4.5 NE 15 20 8 11 1019.8 - 0.0
23/09:00pm 16.8 12.9 7.2 53 4.8 NE 17 24 9 13 1019.5 1019.2 0.0
23/08:30pm 16.9 13.4 7.0 52 5.0 NE 15 20 8 11 1019.0 - 0.0
23/08:00pm 17.3 13.7 6.8 50 5.3 NE 15 19 8 10 1019.0 - 0.0
23/07:30pm 17.3 13.8 5.6 46 5.7 NE 13 17 7 9 1018.7 - 0.0
23/07:00pm 17.5 13.4 4.5 42 6.2 E 15 17 8 9 1018.4 - 0.0
23/06:30pm 18.1 14.2 3.6 38 6.9 E 13 15 7 8 1017.9 - 0.0
23/06:00pm 19.9 16.0 3.6 34 7.8 E 13 17 7 9 1017.6 1017.2 0.0
23/05:30pm 22.4 18.0 4.5 31 8.9 E 17 24 9 13 1017.1 - 0.0
23/05:00pm 23.6 18.6 4.5 29 9.6 E 20 28 11 15 1016.7 - 0.0
23/04:30pm 24.0 19.1 4.9 29 9.7 E 20 26 11 14 1016.6 - 0.0
23/04:00pm 24.5 19.7 4.8 28 10.0 E 19 28 10 15 1016.4 - 0.0
23/03:30pm 24.8 19.4 4.5 27 10.2 E 22 33 12 18 1016.3 - 0.0
23/03:00pm 24.7 19.8 5.0 28 10.0 E 20 28 11 15 1016.2 1015.9 0.0
23/02:30pm 24.5 19.1 4.3 27 10.1 ESE 22 32 12 17 1016.5 - 0.0
23/02:00pm 24.3 18.6 5.1 29 9.8 E 24 32 13 17 1017.2 - 0.0
23/01:30pm 25.1 20.6 6.8 31 9.6 ESE 20 37 11 20 1017.7 - 0.0
23/01:00pm 23.6 18.0 5.5 31 9.2 ESE 24 33 13 18 1018.3 - 0.0
23/12:30pm 23.3 18.9 7.4 36 8.4 E 20 30 11 16 1018.9 - 0.0
23/12:00pm 22.5 18.1 9.0 42 7.3 ESE 22 30 12 16 1019.5 1019.2 0.0
23/11:30am 22.0 18.8 9.9 46 6.6 ENE 17 28 9 15 1020.0 - 0.0
23/11:00am 21.6 19.0 10.7 50 6.0 ESE 15 26 8 14 1020.6 - 0.0
23/10:30am 20.5 17.3 11.2 55 5.2 E 19 26 10 14 1021.1 - 0.0
23/10:00am 19.5 16.3 11.8 61 4.3 E 20 28 11 15 1021.3 - 0.0
23/09:30am 18.6 16.1 9.7 56 4.8 ESE 13 17 7 9 1021.7 - 0.0
23/09:00am 16.7 13.9 7.1 53 4.8 SE 11 15 6 8 1021.7 1021.3 0.0
23/08:30am 14.7 12.5 6.3 57 4.1 SE 7 11 4 6 1021.3 - 0.0
23/08:00am 11.3 9.9 3.8 60 3.4 CALM 0 0 0 0 1021.3 - 0.0
23/07:30am 7.4 5.8 2.7 72 2.0 CALM 0 0 0 0 1021.0 - 0.0
23/07:00am 5.0 2.5 1.7 79 1.3 S 4 6 2 3 1020.6 - 0.0
23/06:30am 4.1 2.2 0.3 76 1.5 S 0 0 0 0 1020.1 - 0.0
23/06:00am 4.8 2.9 0.8 75 1.6 S 0 0 0 0 1019.6 1019.3 0.0
23/05:30am 4.6 2.7 0.7 76 1.5 CALM 0 0 0 0 1019.2 - 0.0
23/05:00am 5.1 2.1 0.9 74 1.7 SSE 6 9 3 5 1018.8 - 0.0
23/04:30am 5.7 3.7 0.1 67 2.2 CALM 0 7 0 4 1018.5 - 0.0
23/04:00am 6.7 3.4 2.2 73 1.9 SSE 9 9 5 5 1018.4 - 0.0
23/03:30am 7.4 4.2 3.1 74 1.8 SSE 9 11 5 6 1018.4 - 0.0
23/03:00am 9.6 5.6 3.1 64 2.8 SSE 13 15 7 8 1018.4 1018.0 0.0
23/02:30am 7.9 4.8 3.8 75 1.8 SSE 9 13 5 7 1018.5 - 0.0
23/02:00am 6.1 2.3 -0.6 62 2.6 S 9 11 5 6 1018.5 - 0.0
23/01:30am 6.9 3.8 -0.1 61 2.8 SSE 6 9 3 5 1018.9 - 0.0
23/01:00am 7.3 3.5 -0.9 56 3.2 S 9 11 5 6 1019.1 - 0.0
23/12:30am 11.3 7.0 1.3 50 4.3 SSE 13 15 7 8 1019.1 - 0.0
23/12:00am 12.0 7.7 1.3 48 4.6 SSE 13 15 7 8 1018.9 1018.6 0.0
 
Date/Time
EST
Temp
°C
App
Temp
°C
Dew
Point
Rel
Hum
%
Delta-T
°C
Wind Press
QNH
hPa
Press
MSL
hPa
Rain
since 9 am
mm
Dir
 
Spd
km/h
Gust
km/h
Spd
kts
Gust
kts
22/11:30pm 10.8 6.8 0.5 49 4.3 SE 11 13 6 7 1018.8 - 0.0
22/11:00pm 9.1 5.8 0.0 53 3.7 SE 7 9 4 5 1019.0 - 0.0
22/10:30pm 9.6 6.2 -0.3 50 4.0 SE 7 9 4 5 1019.1 - 0.0
22/10:00pm 11.3 6.9 0.4 47 4.5 SE 13 13 7 7 1019.4 - 0.0
22/09:30pm 10.1 6.3 -0.4 48 4.2 SE 9 11 5 6 1019.3 - 0.0
22/09:00pm 10.7 6.5 -0.7 45 4.6 SSE 11 11 6 6 1019.3 1019.0 0.0
22/08:30pm 14.6 10.9 0.1 37 6.2 SSE 9 13 5 7 1019.1 - 0.0
22/08:00pm 15.0 11.3 -0.3 35 6.5 SE 9 11 5 6 1018.9 - 0.0
22/07:30pm 15.6 11.1 -0.2 34 6.8 ESE 13 13 7 7 1018.7 - 0.0
22/07:00pm 16.0 11.4 -0.7 32 7.1 ESE 13 13 7 7 1018.3 - 0.0
22/06:30pm 17.3 12.7 -0.9 29 7.8 ESE 13 15 7 8 1017.9 - 0.0
22/06:00pm 19.1 15.0 -0.3 27 8.5 ESE 11 13 6 7 1017.6 1017.2 0.0
22/05:30pm 21.9 17.5 0.4 24 9.8 ESE 13 17 7 9 1017.2 - 0.0
22/05:00pm 23.9 19.2 0.9 22 10.8 ESE 15 19 8 10 1016.9 - 0.0
22/04:30pm 24.8 19.6 0.3 20 11.4 ESE 17 20 9 11 1016.7 - 0.0
22/04:00pm 25.2 20.4 0.0 19 11.7 E 15 20 8 11 1016.6 - 0.0
22/03:30pm 25.6 19.6 1.0 20 11.7 E 22 37 12 20 1016.3 - 0.0
22/03:00pm 25.3 20.6 0.7 20 11.6 ESE 15 20 8 11 1016.7 1016.4 0.0
22/02:30pm 25.0 20.6 0.5 20 11.5 ESE 13 20 7 11 1017.1 - 0.0
22/01:30pm 24.2 19.9 1.2 22 10.9 SSE 13 20 7 11 1018.0 - 0.0
22/01:00pm 23.4 19.4 2.8 26 10.0 SE 13 19 7 10 1018.6 - 0.0
22/12:30pm 23.6 20.1 3.5 27 9.9 S 11 20 6 11 1019.3 - 0.0
22/12:00pm 22.8 18.8 2.8 27 9.6 ESE 13 22 7 12 1020.1 1019.8 0.0
22/11:30am 22.1 18.0 4.2 31 8.8 SE 15 19 8 10 1020.7 - 0.0
22/11:00am 21.7 18.7 6.0 36 8.0 ENE 11 17 6 9 1021.2 - 0.0
22/10:30am 21.1 18.9 6.2 38 7.6 NNE 7 11 4 6 1021.7 - 0.0
22/10:00am 19.7 18.3 8.7 49 5.8 NNW 6 9 3 5 1022.0 - 0.0
22/09:30am 17.7 16.0 8.3 54 4.9 WNW 7 9 4 5 1022.2 - 0.0
22/09:00am 15.3 14.2 6.8 57 4.2 NNE 2 6 1 3 1022.2 1021.8 0.0
22/08:30am 12.3 10.5 5.5 63 3.2 N 4 7 2 4 1022.1 - 0.0
22/08:00am 9.7 8.5 4.5 70 2.3 CALM 0 0 0 0 1021.9 - 0.0
22/07:30am 5.5 3.9 2.5 81 1.2 CALM 0 0 0 0 1021.7 - 0.0
22/07:00am 3.9 2.1 1.3 83 1.0 CALM 0 0 0 0 1021.3 - 0.0
22/06:30am 3.3 1.3 0.2 80 1.2 CALM 0 0 0 0 1021.0 - 0.0
22/06:00am 3.8 2.0 1.2 83 1.0 CALM 0 0 0 0 1020.7 1020.4 0.0
22/05:30am 4.3 1.3 1.7 83 1.0 S 7 9 4 5 1020.3 - 0.0
22/05:00am 4.4 1.9 1.3 80 1.2 SSW 4 9 2 5 1020.1 - 0.0
22/04:30am 4.7 3.0 1.6 80 1.2 CALM 0 0 0 0 1019.8 - 0.0
22/04:00am 4.9 3.1 1.0 76 1.5 CALM 0 0 0 0 1019.7 - 0.0
22/03:30am 6.8 3.2 2.9 76 1.6 SSE 11 13 6 7 1019.9 - 0.0
22/03:00am 5.2 2.8 1.9 79 1.3 S 4 9 2 5 1019.8 1019.5 0.0
22/02:30am 5.8 4.1 1.9 76 1.6 CALM 0 0 0 0 1020.0 - 0.0
22/02:00am 6.0 3.1 1.7 74 1.8 SSE 6 7 3 4 1020.0 - 0.0
22/01:30am 6.5 3.7 2.0 73 1.9 S 6 7 3 4 1020.2 - 0.0
22/01:00am 7.7 4.9 2.2 68 2.3 SSE 6 7 3 4 1020.3 - 0.0
22/12:30am 10.3 6.9 4.0 65 2.8 SSE 11 15 6 8 1020.5 - 0.0
22/12:00am 11.1 6.9 3.9 61 3.2 S 15 15 8 8 1020.6 1020.3 0.0
 
Date/Time
EST
Temp
°C
App
Temp
°C
Dew
Point
Rel
Hum
%
Delta-T
°C
Wind Press
QNH
hPa
Press
MSL
hPa
Rain
since 9 am
mm
Dir
 
Spd
km/h
Gust
km/h
Spd
kts
Gust
kts
21/11:30pm 11.0 7.2 3.8 61 3.2 S 13 15 7 8 1020.7 - 0.0
21/11:00pm 11.3 8.1 3.1 57 3.6 SSE 9 13 5 7 1020.8 - 0.0
21/10:30pm 12.3 9.8 4.5 59 3.6 ESE 7 9 4 5 1020.9 - 0.0
21/10:00pm 12.3 9.6 3.8 56 3.9 ESE 7 9 4 5 1021.0 - 0.0
21/09:30pm 11.4 8.8 3.2 57 3.6 NNE 6 7 3 4 1020.9 - 0.0
21/09:00pm 11.9 9.0 2.4 52 4.1 SE 7 9 4 5 1020.7 1020.4 0.0
21/08:30pm 12.7 8.3 2.6 50 4.5 SE 15 15 8 8 1020.5 - 0.0
21/08:00pm 14.1 9.4 3.0 47 5.0 SE 17 17 9 9 1020.3 - 0.0
21/07:30pm 15.3 10.6 3.1 44 5.6 SSE 17 17 9 9 1020.1 - 0.0
21/07:00pm 15.4 11.0 2.9 43 5.7 SE 15 17 8 9 1019.8 - 0.0
21/06:30pm 15.5 11.2 3.0 43 5.7 SSE 15 17 8 9 1019.5 - 0.0
21/06:00pm 16.7 12.2 2.3 38 6.5 SE 15 17 8 9 1018.9 1018.6 0.0
21/05:30pm 20.3 16.8 3.5 33 8.1 SE 11 13 6 7 1018.7 - 0.0
21/05:00pm 22.7 19.2 3.3 28 9.4 ESE 11 15 6 8 1018.3 - 0.0
21/04:30pm 23.4 19.9 3.4 27 9.8 E 11 17 6 9 1018.1 - 0.0
21/04:00pm 23.5 20.1 4.0 28 9.7 E 11 15 6 8 1018.0 - 0.0
21/03:30pm 23.6 20.2 4.0 28 9.7 E 11 17 6 9 1018.0 - 0.0
21/03:00pm 24.6 21.5 5.4 29 9.8 ESE 11 20 6 11 1018.0 1017.6 0.0
21/02:30pm 24.0 20.9 5.4 30 9.5 E 11 26 6 14 1018.1 - 0.0
21/02:00pm 22.6 18.6 5.1 32 8.8 E 15 24 8 13 1018.4 - 0.0
21/01:30pm 22.4 17.6 4.9 32 8.8 E 19 24 10 13 1018.6 - 0.0
21/01:00pm 22.7 18.9 5.6 33 8.7 E 15 28 8 15 1019.1 - 0.0
21/12:30pm 21.4 18.0 5.7 36 7.9 E 13 24 7 13 1019.8 - 0.0
21/12:00pm 21.0 16.7 5.4 36 7.8 E 17 24 9 13 1020.4 1020.1 0.0
21/11:30am 20.9 16.0 5.3 36 7.8 E 20 30 11 16 1021.1 - 0.0
21/11:00am 19.7 14.8 5.0 38 7.2 E 20 28 11 15 1021.7 - 0.0
21/10:30am 19.1 15.7 5.9 42 6.6 E 13 19 7 10 1022.2 - 0.0
21/10:00am 17.5 13.6 3.4 39 6.6 ESE 13 22 7 12 1022.5 - 0.0
21/09:30am 15.9 12.9 2.3 40 6.2 E 7 13 4 7 1022.9 - 0.0
21/09:00am 13.7 11.3 -0.3 38 5.8 WNW 2 6 1 3 1023.0 1022.7 0.0
21/08:30am 10.7 8.5 -1.7 42 4.9 CALM 0 0 0 0 1022.7 - 0.0
21/08:00am 6.9 4.6 -2.3 52 3.4 CALM 0 0 0 0 1022.6 - 0.0
21/07:30am 3.5 1.1 -3.5 60 2.4 CALM 0 0 0 0 1022.4 - 0.0
21/07:00am 1.4 -1.1 -3.6 69 1.8 CALM 0 0 0 0 1022.0 - 0.0
21/06:30am 0.8 -1.7 -4.2 69 1.7 CALM 0 0 0 0 1021.8 - 0.0
21/06:00am 1.2 -1.2 -3.5 71 1.7 CALM 0 0 0 0 1021.3 1021.0 0.0
21/05:30am 0.8 -1.7 -4.2 69 1.7 CALM 0 0 0 0 1021.0 - 0.0
21/05:00am 1.0 -1.6 -4.6 66 1.9 CALM 0 0 0 0 1020.7 - 0.0
21/04:30am 1.9 -1.5 -5.2 59 2.4 S 4 7 2 4 1020.5 - 0.0
21/04:00am 2.7 -1.2 -4.9 57 2.5 S 7 9 4 5 1020.5 - 0.0
21/03:30am 4.0 0.3 -3.3 59 2.6 SSW 7 11 4 6 1020.3 - 0.0
21/03:00am 2.0 -0.6 -4.5 62 2.3 CALM 0 0 0 0 1020.5 1020.2 0.0
21/02:30am 2.3 -0.3 -4.9 59 2.5 CALM 0 0 0 0 1020.7 - 0.0
21/02:00am 3.2 -0.5 -4.7 56 2.6 W 6 7 3 4 1021.0 - 0.0
21/01:30am 2.5 -1.3 -5.1 57 2.5 W 6 7 3 4 1021.2 - 0.0
21/01:00am 3.6 1.0 -4.8 54 2.8 CALM 0 0 0 0 1021.2 - 0.0
21/12:30am 3.6 -0.2 -5.1 53 2.9 SSE 6 7 3 4 1021.2 - 0.0
21/12:00am 4.3 0.0 -4.9 51 3.1 SSE 9 9 5 5 1021.3 1021.0 0.0

Other Formats:

Comma delimited format used in spreadsheet applications
http://www.bom.gov.au/fwo/IDQ60801/IDQ60801.94397.axf

JavaScript Object Notation format (JSON) in row-major order
http://www.bom.gov.au/fwo/IDQ60801/IDQ60801.94397.json